sensor_id;sensor_type;location;lat;lon;timestamp;temperature;humidity
5924;DHT22;2987;50.884;14.818;2023-08-01T00:02:12;18.60;99.90
5924;DHT22;2987;50.884;14.818;2023-08-01T00:04:38;18.60;99.90
5924;DHT22;2987;50.884;14.818;2023-08-01T00:07:04;18.50;99.90
5924;DHT22;2987;50.884;14.818;2023-08-01T00:09:30;18.40;99.90
5924;DHT22;2987;50.884;14.818;2023-08-01T00:11:56;18.40;99.90
5924;DHT22;2987;50.884;14.818;2023-08-01T00:14:22;18.30;99.90
5924;DHT22;2987;50.884;14.818;2023-08-01T00:16:50;18.30;99.90
5924;DHT22;2987;50.884;14.818;2023-08-01T00:19:17;18.30;99.90
5924;DHT22;2987;50.884;14.818;2023-08-01T00:21:43;18.20;99.90
5924;DHT22;2987;50.884;14.818;2023-08-01T00:24:09;18.10;99.90
5924;DHT22;2987;50.884;14.818;2023-08-01T00:26:35;18.00;99.90
5924;DHT22;2987;50.884;14.818;2023-08-01T00:29:01;17.90;99.90
5924;DHT22;2987;50.884;14.818;2023-08-01T00:31:27;17.80;99.90
5924;DHT22;2987;50.884;14.818;2023-08-01T00:33:53;17.80;99.90
5924;DHT22;2987;50.884;14.818;2023-08-01T00:36:19;17.70;99.90
5924;DHT22;2987;50.884;14.818;2023-08-01T00:38:45;17.60;99.90
5924;DHT22;2987;50.884;14.818;2023-08-01T00:41:11;17.60;99.90
5924;DHT22;2987;50.884;14.818;2023-08-01T00:43:37;17.60;99.90
5924;DHT22;2987;50.884;14.818;2023-08-01T00:46:04;17.50;99.90
5924;DHT22;2987;50.884;14.818;2023-08-01T00:48:31;17.50;99.90
5924;DHT22;2987;50.884;14.818;2023-08-01T00:50:59;17.40;99.90
5924;DHT22;2987;50.884;14.818;2023-08-01T00:53:25;17.40;99.90
5924;DHT22;2987;50.884;14.818;2023-08-01T00:55:52;17.40;99.90
5924;DHT22;2987;50.884;14.818;2023-08-01T00:58:19;17.40;99.90
5924;DHT22;2987;50.884;14.818;2023-08-01T01:00:46;17.40;99.90
5924;DHT22;2987;50.884;14.818;2023-08-01T01:03:13;17.30;99.90
5924;DHT22;2987;50.884;14.818;2023-08-01T01:05:43;17.30;99.90
5924;DHT22;2987;50.884;14.818;2023-08-01T01:08:13;17.30;99.90
5924;DHT22;2987;50.884;14.818;2023-08-01T01:10:39;17.30;99.90
5924;DHT22;2987;50.884;14.818;2023-08-01T01:13:05;17.20;99.90
5924;DHT22;2987;50.884;14.818;2023-08-01T01:15:31;17.10;99.90
5924;DHT22;2987;50.884;14.818;2023-08-01T01:17:57;17.10;99.90
5924;DHT22;2987;50.884;14.818;2023-08-01T01:20:24;17.10;99.90
5924;DHT22;2987;50.884;14.818;2023-08-01T01:22:52;17.10;99.90
5924;DHT22;2987;50.884;14.818;2023-08-01T01:25:20;17.20;99.90
5924;DHT22;2987;50.884;14.818;2023-08-01T01:27:49;17.20;99.90
5924;DHT22;2987;50.884;14.818;2023-08-01T01:30:15;17.10;99.90
5924;DHT22;2987;50.884;14.818;2023-08-01T01:32:42;17.10;99.90
5924;DHT22;2987;50.884;14.818;2023-08-01T01:35:08;17.10;99.90
5924;DHT22;2987;50.884;14.818;2023-08-01T01:37:34;17.00;99.90
5924;DHT22;2987;50.884;14.818;2023-08-01T01:40:00;17.00;99.90
5924;DHT22;2987;50.884;14.818;2023-08-01T01:42:26;17.00;99.90
5924;DHT22;2987;50.884;14.818;2023-08-01T01:44:52;17.00;99.90
5924;DHT22;2987;50.884;14.818;2023-08-01T08:02:16;17.50;99.90
5924;DHT22;2987;50.884;14.818;2023-08-01T08:04:42;17.50;99.90
5924;DHT22;2987;50.884;14.818;2023-08-01T08:09:34;17.50;99.90
5924;DHT22;2987;50.884;14.818;2023-08-01T08:12:00;17.60;99.90
5924;DHT22;2987;50.884;14.818;2023-08-01T08:14:26;17.60;99.90
5924;DHT22;2987;50.884;14.818;2023-08-01T08:16:52;17.70;99.90
5924;DHT22;2987;50.884;14.818;2023-08-01T08:19:18;17.70;99.90
5924;DHT22;2987;50.884;14.818;2023-08-01T08:21:44;17.80;99.90
5924;DHT22;2987;50.884;14.818;2023-08-01T08:24:10;17.80;99.90
5924;DHT22;2987;50.884;14.818;2023-08-01T08:26:37;17.80;99.90
5924;DHT22;2987;50.884;14.818;2023-08-01T08:29:05;17.90;99.90
5924;DHT22;2987;50.884;14.818;2023-08-01T08:31:31;17.90;99.90
5924;DHT22;2987;50.884;14.818;2023-08-01T08:33:57;17.90;99.90
5924;DHT22;2987;50.884;14.818;2023-08-01T08:36:23;18.00;99.90
5924;DHT22;2987;50.884;14.818;2023-08-01T08:38:50;17.90;99.90
5924;DHT22;2987;50.884;14.818;2023-08-01T08:41:26;17.90;99.90
5924;DHT22;2987;50.884;14.818;2023-08-01T08:43:57;18.00;99.90
5924;DHT22;2987;50.884;14.818;2023-08-01T08:46:28;18.00;99.90
5924;DHT22;2987;50.884;14.818;2023-08-01T08:48:56;18.00;99.90
5924;DHT22;2987;50.884;14.818;2023-08-01T08:51:26;18.00;99.90
5924;DHT22;2987;50.884;14.818;2023-08-01T08:53:54;18.00;99.90
5924;DHT22;2987;50.884;14.818;2023-08-01T08:56:20;18.00;99.90
5924;DHT22;2987;50.884;14.818;2023-08-01T08:58:47;18.00;99.90
5924;DHT22;2987;50.884;14.818;2023-08-01T09:01:14;18.00;99.90
5924;DHT22;2987;50.884;14.818;2023-08-01T09:03:39;18.00;99.90
5924;DHT22;2987;50.884;14.818;2023-08-01T09:06:07;18.10;99.90
5924;DHT22;2987;50.884;14.818;2023-08-01T09:08:36;18.10;99.90
5924;DHT22;2987;50.884;14.818;2023-08-01T09:11:03;18.10;99.90
5924;DHT22;2987;50.884;14.818;2023-08-01T09:13:30;18.20;99.90
5924;DHT22;2987;50.884;14.818;2023-08-01T09:15:57;18.20;99.90
5924;DHT22;2987;50.884;14.818;2023-08-01T09:18:23;18.20;99.90
5924;DHT22;2987;50.884;14.818;2023-08-01T09:20:49;18.10;99.90
5924;DHT22;2987;50.884;14.818;2023-08-01T09:23:17;18.20;99.90
5924;DHT22;2987;50.884;14.818;2023-08-01T09:25:44;18.30;99.90
5924;DHT22;2987;50.884;14.818;2023-08-01T09:28:20;18.40;99.90
5924;DHT22;2987;50.884;14.818;2023-08-01T09:30:49;18.50;99.90
5924;DHT22;2987;50.884;14.818;2023-08-01T09:33:16;18.70;99.90
5924;DHT22;2987;50.884;14.818;2023-08-01T09:35:42;18.80;99.90
5924;DHT22;2987;50.884;14.818;2023-08-01T09:38:13;18.80;99.90
5924;DHT22;2987;50.884;14.818;2023-08-01T09:40:41;19.00;99.90
5924;DHT22;2987;50.884;14.818;2023-08-01T09:43:07;19.00;99.90
5924;DHT22;2987;50.884;14.818;2023-08-01T09:45:34;19.10;99.90
5924;DHT22;2987;50.884;14.818;2023-08-01T09:48:00;19.20;99.90
5924;DHT22;2987;50.884;14.818;2023-08-01T09:50:27;19.30;99.90
5924;DHT22;2987;50.884;14.818;2023-08-01T09:52:53;19.40;99.90
5924;DHT22;2987;50.884;14.818;2023-08-01T09:55:33;19.50;99.90
5924;DHT22;2987;50.884;14.818;2023-08-01T09:58:00;19.50;99.90
5924;DHT22;2987;50.884;14.818;2023-08-01T10:00:28;19.60;99.90
5924;DHT22;2987;50.884;14.818;2023-08-01T10:02:58;19.70;99.90
5924;DHT22;2987;50.884;14.818;2023-08-01T10:05:30;19.80;99.90
5924;DHT22;2987;50.884;14.818;2023-08-01T10:07:59;19.70;99.90
5924;DHT22;2987;50.884;14.818;2023-08-01T10:10:28;19.70;99.90
5924;DHT22;2987;50.884;14.818;2023-08-01T10:12:56;19.80;99.90
5924;DHT22;2987;50.884;14.818;2023-08-01T10:15:25;19.90;99.90
5924;DHT22;2987;50.884;14.818;2023-08-01T10:17:52;20.00;99.90
5924;DHT22;2987;50.884;14.818;2023-08-01T10:20:20;20.10;99.90
5924;DHT22;2987;50.884;14.818;2023-08-01T10:22:49;20.10;99.90
5924;DHT22;2987;50.884;14.818;2023-08-01T10:25:17;20.20;99.90
5924;DHT22;2987;50.884;14.818;2023-08-01T10:27:44;20.20;99.90
5924;DHT22;2987;50.884;14.818;2023-08-01T10:30:10;20.30;99.90
5924;DHT22;2987;50.884;14.818;2023-08-01T10:32:38;20.30;99.90
5924;DHT22;2987;50.884;14.818;2023-08-01T10:35:05;20.50;99.90
5924;DHT22;2987;50.884;14.818;2023-08-01T10:37:43;20.60;99.90
5924;DHT22;2987;50.884;14.818;2023-08-01T10:40:11;20.60;99.90
5924;DHT22;2987;50.884;14.818;2023-08-01T10:42:38;20.60;99.90
5924;DHT22;2987;50.884;14.818;2023-08-01T10:45:05;20.60;99.90
5924;DHT22;2987;50.884;14.818;2023-08-01T10:47:32;20.50;99.90
5924;DHT22;2987;50.884;14.818;2023-08-01T10:49:58;20.60;99.90
5924;DHT22;2987;50.884;14.818;2023-08-01T10:52:26;20.60;99.90
5924;DHT22;2987;50.884;14.818;2023-08-01T10:55:09;20.70;99.90
5924;DHT22;2987;50.884;14.818;2023-08-01T10:57:38;20.80;99.90
5924;DHT22;2987;50.884;14.818;2023-08-01T11:00:05;21.00;99.90
5924;DHT22;2987;50.884;14.818;2023-08-01T11:02:36;21.10;99.90
5924;DHT22;2987;50.884;14.818;2023-08-01T11:05:05;21.20;99.90
5924;DHT22;2987;50.884;14.818;2023-08-01T11:07:33;21.20;99.90
5924;DHT22;2987;50.884;14.818;2023-08-01T11:10:15;21.20;99.90
5924;DHT22;2987;50.884;14.818;2023-08-01T11:12:42;21.10;99.90
5924;DHT22;2987;50.884;14.818;2023-08-01T11:15:12;21.10;99.90
5924;DHT22;2987;50.884;14.818;2023-08-01T11:17:40;21.00;99.90
5924;DHT22;2987;50.884;14.818;2023-08-01T11:20:08;21.00;99.90
5924;DHT22;2987;50.884;14.818;2023-08-01T11:22:35;21.00;99.90
5924;DHT22;2987;50.884;14.818;2023-08-01T11:25:02;21.00;99.90
5924;DHT22;2987;50.884;14.818;2023-08-01T11:27:28;21.10;99.90
5924;DHT22;2987;50.884;14.818;2023-08-01T11:29:55;21.00;99.90
5924;DHT22;2987;50.884;14.818;2023-08-01T11:32:32;21.20;99.90
5924;DHT22;2987;50.884;14.818;2023-08-01T11:34:58;21.20;99.90
5924;DHT22;2987;50.884;14.818;2023-08-01T11:37:26;21.30;99.90
5924;DHT22;2987;50.884;14.818;2023-08-01T11:39:53;21.40;99.90
5924;DHT22;2987;50.884;14.818;2023-08-01T11:42:20;21.50;99.90
5924;DHT22;2987;50.884;14.818;2023-08-01T11:44:46;21.60;99.90
5924;DHT22;2987;50.884;14.818;2023-08-01T11:47:15;21.80;99.90
5924;DHT22;2987;50.884;14.818;2023-08-01T11:49:49;22.10;99.90
5924;DHT22;2987;50.884;14.818;2023-08-01T11:52:25;22.30;99.90
5924;DHT22;2987;50.884;14.818;2023-08-01T11:54:52;22.40;99.90
5924;DHT22;2987;50.884;14.818;2023-08-01T11:57:21;22.30;99.90
5924;DHT22;2987;50.884;14.818;2023-08-01T11:59:49;22.10;99.90
5924;DHT22;2987;50.884;14.818;2023-08-01T12:02:31;22.10;99.90
5924;DHT22;2987;50.884;14.818;2023-08-01T12:04:58;22.10;99.90
5924;DHT22;2987;50.884;14.818;2023-08-01T12:07:25;22.20;99.90
5924;DHT22;2987;50.884;14.818;2023-08-01T12:09:56;22.30;99.90
5924;DHT22;2987;50.884;14.818;2023-08-01T12:12:22;22.30;99.90
5924;DHT22;2987;50.884;14.818;2023-08-01T12:14:49;22.30;99.90
5924;DHT22;2987;50.884;14.818;2023-08-01T12:17:15;22.30;99.90
5924;DHT22;2987;50.884;14.818;2023-08-01T12:19:41;22.20;99.90
5924;DHT22;2987;50.884;14.818;2023-08-01T12:22:07;22.30;99.90
5924;DHT22;2987;50.884;14.818;2023-08-01T12:24:32;22.40;99.90
5924;DHT22;2987;50.884;14.818;2023-08-01T12:27:00;22.40;99.90
5924;DHT22;2987;50.884;14.818;2023-08-01T12:29:26;22.40;99.90
5924;DHT22;2987;50.884;14.818;2023-08-01T12:31:51;22.60;99.90
5924;DHT22;2987;50.884;14.818;2023-08-01T12:34:17;22.80;99.90
5924;DHT22;2987;50.884;14.818;2023-08-01T12:36:44;23.00;99.90
5924;DHT22;2987;50.884;14.818;2023-08-01T12:39:10;23.20;99.90
5924;DHT22;2987;50.884;14.818;2023-08-01T12:41:38;23.40;99.90
5924;DHT22;2987;50.884;14.818;2023-08-01T12:44:04;23.50;99.90
5924;DHT22;2987;50.884;14.818;2023-08-01T12:46:30;23.70;99.90
5924;DHT22;2987;50.884;14.818;2023-08-01T12:48:57;23.70;99.90
5924;DHT22;2987;50.884;14.818;2023-08-01T12:51:22;23.90;99.90
5924;DHT22;2987;50.884;14.818;2023-08-01T12:53:49;24.20;99.90
5924;DHT22;2987;50.884;14.818;2023-08-01T12:56:15;24.30;99.90
5924;DHT22;2987;50.884;14.818;2023-08-01T12:58:42;23.90;99.90
5924;DHT22;2987;50.884;14.818;2023-08-01T13:01:08;23.70;99.90
5924;DHT22;2987;50.884;14.818;2023-08-01T13:03:34;23.70;99.90
5924;DHT22;2987;50.884;14.818;2023-08-01T13:06:00;23.50;99.90
5924;DHT22;2987;50.884;14.818;2023-08-01T13:08:26;23.40;99.90
5924;DHT22;2987;50.884;14.818;2023-08-01T13:10:52;23.40;99.90
5924;DHT22;2987;50.884;14.818;2023-08-01T13:13:18;23.40;99.90
5924;DHT22;2987;50.884;14.818;2023-08-01T13:15:44;23.40;99.90
5924;DHT22;2987;50.884;14.818;2023-08-01T13:18:10;23.40;99.90
5924;DHT22;2987;50.884;14.818;2023-08-01T13:20:36;23.50;99.90
5924;DHT22;2987;50.884;14.818;2023-08-01T13:23:03;23.60;99.90
5924;DHT22;2987;50.884;14.818;2023-08-01T13:25:29;23.70;99.90
5924;DHT22;2987;50.884;14.818;2023-08-01T13:27:55;24.00;99.90
5924;DHT22;2987;50.884;14.818;2023-08-01T13:30:21;23.90;99.90
5924;DHT22;2987;50.884;14.818;2023-08-01T13:32:47;23.80;99.90
5924;DHT22;2987;50.884;14.818;2023-08-01T13:35:14;23.40;99.90
5924;DHT22;2987;50.884;14.818;2023-08-01T13:37:40;23.20;99.90
5924;DHT22;2987;50.884;14.818;2023-08-01T13:40:07;23.00;99.90
5924;DHT22;2987;50.884;14.818;2023-08-01T13:42:33;22.80;99.90
5924;DHT22;2987;50.884;14.818;2023-08-01T13:44:59;22.60;99.90
5924;DHT22;2987;50.884;14.818;2023-08-01T13:47:25;22.50;99.90
5924;DHT22;2987;50.884;14.818;2023-08-01T13:49:51;22.20;99.90
5924;DHT22;2987;50.884;14.818;2023-08-01T13:52:17;21.70;99.90
5924;DHT22;2987;50.884;14.818;2023-08-01T13:54:43;20.70;99.90
5924;DHT22;2987;50.884;14.818;2023-08-01T13:57:09;19.90;99.90
5924;DHT22;2987;50.884;14.818;2023-08-01T13:59:35;19.30;99.90
5924;DHT22;2987;50.884;14.818;2023-08-01T14:02:02;18.90;99.90
5924;DHT22;2987;50.884;14.818;2023-08-01T14:04:29;18.50;99.90
5924;DHT22;2987;50.884;14.818;2023-08-01T14:06:55;18.30;99.90
5924;DHT22;2987;50.884;14.818;2023-08-01T14:09:21;18.30;99.90
5924;DHT22;2987;50.884;14.818;2023-08-01T14:11:47;18.00;99.90
5924;DHT22;2987;50.884;14.818;2023-08-01T14:14:13;17.90;99.90
5924;DHT22;2987;50.884;14.818;2023-08-01T14:16:39;17.70;99.90
5924;DHT22;2987;50.884;14.818;2023-08-01T14:19:05;17.60;99.90
5924;DHT22;2987;50.884;14.818;2023-08-01T14:21:34;17.50;99.90
5924;DHT22;2987;50.884;14.818;2023-08-01T14:24:00;17.40;99.90
5924;DHT22;2987;50.884;14.818;2023-08-01T14:26:27;17.30;99.90
5924;DHT22;2987;50.884;14.818;2023-08-01T14:28:53;17.20;99.90
5924;DHT22;2987;50.884;14.818;2023-08-01T14:31:18;17.20;99.90
5924;DHT22;2987;50.884;14.818;2023-08-01T14:33:44;17.10;99.90
5924;DHT22;2987;50.884;14.818;2023-08-01T14:36:11;17.10;99.90
5924;DHT22;2987;50.884;14.818;2023-08-01T14:41:05;17.10;99.90
5924;DHT22;2987;50.884;14.818;2023-08-01T14:43:31;17.10;99.90
5924;DHT22;2987;50.884;14.818;2023-08-01T14:45:57;17.20;99.90
5924;DHT22;2987;50.884;14.818;2023-08-01T14:48:23;17.10;99.90
5924;DHT22;2987;50.884;14.818;2023-08-01T14:50:49;17.10;99.90
5924;DHT22;2987;50.884;14.818;2023-08-01T14:53:15;17.10;99.90
5924;DHT22;2987;50.884;14.818;2023-08-01T14:55:41;17.20;99.90
5924;DHT22;2987;50.884;14.818;2023-08-01T14:58:07;17.30;99.90
5924;DHT22;2987;50.884;14.818;2023-08-01T15:00:36;17.40;99.90
5924;DHT22;2987;50.884;14.818;2023-08-01T15:03:02;17.60;99.90
5924;DHT22;2987;50.884;14.818;2023-08-01T15:05:29;17.80;99.90
5924;DHT22;2987;50.884;14.818;2023-08-01T15:07:55;18.00;99.90
5924;DHT22;2987;50.884;14.818;2023-08-01T15:10:21;18.20;99.90
5924;DHT22;2987;50.884;14.818;2023-08-01T15:12:47;18.40;99.90
5924;DHT22;2987;50.884;14.818;2023-08-01T15:15:13;18.60;99.90
5924;DHT22;2987;50.884;14.818;2023-08-01T15:17:39;18.80;99.90
5924;DHT22;2987;50.884;14.818;2023-08-01T15:20:05;19.00;99.90
5924;DHT22;2987;50.884;14.818;2023-08-01T15:22:32;19.20;99.90
5924;DHT22;2987;50.884;14.818;2023-08-01T15:24:58;19.30;99.90
5924;DHT22;2987;50.884;14.818;2023-08-01T15:27:23;19.40;99.90
5924;DHT22;2987;50.884;14.818;2023-08-01T15:29:50;19.50;99.90
5924;DHT22;2987;50.884;14.818;2023-08-01T15:32:16;19.60;99.90
5924;DHT22;2987;50.884;14.818;2023-08-01T15:34:42;19.70;99.90
5924;DHT22;2987;50.884;14.818;2023-08-01T15:37:09;19.80;99.90
5924;DHT22;2987;50.884;14.818;2023-08-01T15:39:35;20.00;99.90
5924;DHT22;2987;50.884;14.818;2023-08-01T15:42:02;20.20;99.90
5924;DHT22;2987;50.884;14.818;2023-08-01T15:44:28;20.30;99.90
5924;DHT22;2987;50.884;14.818;2023-08-01T15:46:54;20.50;99.90
5924;DHT22;2987;50.884;14.818;2023-08-01T15:49:20;20.60;99.90
5924;DHT22;2987;50.884;14.818;2023-08-01T15:51:45;20.60;99.90
5924;DHT22;2987;50.884;14.818;2023-08-01T15:54:11;20.50;99.90
5924;DHT22;2987;50.884;14.818;2023-08-01T15:56:37;20.60;99.90
5924;DHT22;2987;50.884;14.818;2023-08-01T15:59:04;20.60;99.90
5924;DHT22;2987;50.884;14.818;2023-08-01T16:01:30;20.70;99.90
5924;DHT22;2987;50.884;14.818;2023-08-01T16:03:56;20.80;99.90
5924;DHT22;2987;50.884;14.818;2023-08-01T16:06:22;20.80;99.90
5924;DHT22;2987;50.884;14.818;2023-08-01T16:08:48;20.60;99.90
5924;DHT22;2987;50.884;14.818;2023-08-01T16:11:15;20.70;99.90
5924;DHT22;2987;50.884;14.818;2023-08-01T16:13:41;20.80;99.90
5924;DHT22;2987;50.884;14.818;2023-08-01T16:16:07;20.70;99.90
5924;DHT22;2987;50.884;14.818;2023-08-01T16:18:33;20.70;99.90
5924;DHT22;2987;50.884;14.818;2023-08-01T16:20:59;20.60;99.90
5924;DHT22;2987;50.884;14.818;2023-08-01T16:23:25;20.70;99.90
5924;DHT22;2987;50.884;14.818;2023-08-01T16:25:51;20.70;99.90
5924;DHT22;2987;50.884;14.818;2023-08-01T16:28:17;20.70;99.90
5924;DHT22;2987;50.884;14.818;2023-08-01T16:30:42;20.50;99.90
5924;DHT22;2987;50.884;14.818;2023-08-01T16:33:10;20.30;99.90
5924;DHT22;2987;50.884;14.818;2023-08-01T16:35:37;20.20;99.90
5924;DHT22;2987;50.884;14.818;2023-08-01T16:38:03;20.10;99.90
5924;DHT22;2987;50.884;14.818;2023-08-01T16:40:29;19.90;99.90
5924;DHT22;2987;50.884;14.818;2023-08-01T16:42:57;19.80;99.90
5924;DHT22;2987;50.884;14.818;2023-08-01T16:45:23;19.70;99.90
5924;DHT22;2987;50.884;14.818;2023-08-01T16:47:49;19.70;99.90
5924;DHT22;2987;50.884;14.818;2023-08-01T16:50:16;19.50;99.90
5924;DHT22;2987;50.884;14.818;2023-08-01T16:52:43;19.50;99.90
5924;DHT22;2987;50.884;14.818;2023-08-01T16:55:09;19.40;99.90
5924;DHT22;2987;50.884;14.818;2023-08-01T16:57:35;19.30;99.90
5924;DHT22;2987;50.884;14.818;2023-08-01T17:00:04;19.30;99.90
5924;DHT22;2987;50.884;14.818;2023-08-01T17:02:30;19.20;99.90
5924;DHT22;2987;50.884;14.818;2023-08-01T17:04:56;19.10;99.90
5924;DHT22;2987;50.884;14.818;2023-08-01T17:07:23;19.00;99.90
5924;DHT22;2987;50.884;14.818;2023-08-01T17:09:49;18.90;99.90
5924;DHT22;2987;50.884;14.818;2023-08-01T17:12:15;18.80;99.90
5924;DHT22;2987;50.884;14.818;2023-08-01T17:14:41;18.60;99.90
5924;DHT22;2987;50.884;14.818;2023-08-01T17:17:07;18.50;99.90
5924;DHT22;2987;50.884;14.818;2023-08-01T17:19:33;18.50;99.90
5924;DHT22;2987;50.884;14.818;2023-08-01T17:21:59;18.40;99.90
5924;DHT22;2987;50.884;14.818;2023-08-01T17:24:25;18.30;99.90
5924;DHT22;2987;50.884;14.818;2023-08-01T17:26:51;18.20;99.90
5924;DHT22;2987;50.884;14.818;2023-08-01T17:29:17;18.10;99.90
5924;DHT22;2987;50.884;14.818;2023-08-01T17:31:43;18.10;99.90
5924;DHT22;2987;50.884;14.818;2023-08-01T17:34:09;18.10;99.90
5924;DHT22;2987;50.884;14.818;2023-08-01T17:36:35;18.10;99.90
5924;DHT22;2987;50.884;14.818;2023-08-01T17:39:04;18.00;99.90
5924;DHT22;2987;50.884;14.818;2023-08-01T17:41:30;18.00;99.90
5924;DHT22;2987;50.884;14.818;2023-08-01T17:43:58;18.00;99.90
5924;DHT22;2987;50.884;14.818;2023-08-01T17:46:26;18.00;99.90
5924;DHT22;2987;50.884;14.818;2023-08-01T17:48:53;18.00;99.90
5924;DHT22;2987;50.884;14.818;2023-08-01T17:51:19;18.00;99.90
5924;DHT22;2987;50.884;14.818;2023-08-01T17:53:46;17.90;99.90
5924;DHT22;2987;50.884;14.818;2023-08-01T17:56:13;17.90;99.90
5924;DHT22;2987;50.884;14.818;2023-08-01T17:58:40;17.90;99.90
5924;DHT22;2987;50.884;14.818;2023-08-01T18:01:07;17.80;99.90
5924;DHT22;2987;50.884;14.818;2023-08-01T18:03:34;17.70;99.90
5924;DHT22;2987;50.884;14.818;2023-08-01T18:06:09;17.70;99.90
5924;DHT22;2987;50.884;14.818;2023-08-01T18:08:38;17.60;99.90
5924;DHT22;2987;50.884;14.818;2023-08-01T18:11:14;17.60;99.90
5924;DHT22;2987;50.884;14.818;2023-08-01T18:13:42;17.60;99.90
5924;DHT22;2987;50.884;14.818;2023-08-01T18:16:09;17.60;99.90
5924;DHT22;2987;50.884;14.818;2023-08-01T18:18:36;17.60;99.90
5924;DHT22;2987;50.884;14.818;2023-08-01T18:21:04;17.60;99.90
5924;DHT22;2987;50.884;14.818;2023-08-01T18:23:35;17.60;99.90
5924;DHT22;2987;50.884;14.818;2023-08-01T18:26:02;17.60;99.90
5924;DHT22;2987;50.884;14.818;2023-08-01T18:28:28;17.60;99.90
5924;DHT22;2987;50.884;14.818;2023-08-01T18:30:54;17.60;99.90
5924;DHT22;2987;50.884;14.818;2023-08-01T18:33:20;17.60;99.90
5924;DHT22;2987;50.884;14.818;2023-08-01T18:35:46;17.60;99.90
5924;DHT22;2987;50.884;14.818;2023-08-01T18:38:12;17.50;99.90
5924;DHT22;2987;50.884;14.818;2023-08-01T18:40:39;17.50;99.90
5924;DHT22;2987;50.884;14.818;2023-08-01T18:43:06;17.30;99.90
5924;DHT22;2987;50.884;14.818;2023-08-01T18:45:32;17.30;99.90
5924;DHT22;2987;50.884;14.818;2023-08-01T18:47:58;17.20;99.90
5924;DHT22;2987;50.884;14.818;2023-08-01T18:50:24;17.10;99.90
5924;DHT22;2987;50.884;14.818;2023-08-01T18:52:50;17.00;99.90
5924;DHT22;2987;50.884;14.818;2023-08-01T18:55:16;16.90;99.90
5924;DHT22;2987;50.884;14.818;2023-08-01T18:57:44;16.90;99.90
5924;DHT22;2987;50.884;14.818;2023-08-01T19:00:10;16.80;99.90
5924;DHT22;2987;50.884;14.818;2023-08-01T19:02:37;16.80;99.90
5924;DHT22;2987;50.884;14.818;2023-08-01T19:05:11;16.70;99.90
5924;DHT22;2987;50.884;14.818;2023-08-01T19:10:03;16.60;99.90
5924;DHT22;2987;50.884;14.818;2023-08-01T19:12:29;16.70;99.90
5924;DHT22;2987;50.884;14.818;2023-08-01T19:14:56;16.60;99.90
5924;DHT22;2987;50.884;14.818;2023-08-01T19:17:22;16.60;99.90
5924;DHT22;2987;50.884;14.818;2023-08-01T19:19:47;16.60;99.90
5924;DHT22;2987;50.884;14.818;2023-08-01T19:22:13;16.50;99.90
5924;DHT22;2987;50.884;14.818;2023-08-01T19:24:39;16.50;99.90
5924;DHT22;2987;50.884;14.818;2023-08-01T19:27:06;16.40;99.90
5924;DHT22;2987;50.884;14.818;2023-08-01T19:29:33;16.40;99.90
5924;DHT22;2987;50.884;14.818;2023-08-01T19:31:59;16.30;99.90
5924;DHT22;2987;50.884;14.818;2023-08-01T19:34:25;16.30;99.90
5924;DHT22;2987;50.884;14.818;2023-08-01T19:36:51;16.20;99.90
5924;DHT22;2987;50.884;14.818;2023-08-01T19:39:17;16.20;99.90
5924;DHT22;2987;50.884;14.818;2023-08-01T19:41:43;16.20;99.90
5924;DHT22;2987;50.884;14.818;2023-08-01T19:44:09;16.10;99.90
5924;DHT22;2987;50.884;14.818;2023-08-01T19:46:35;16.00;99.90
5924;DHT22;2987;50.884;14.818;2023-08-01T19:49:02;16.00;99.90
5924;DHT22;2987;50.884;14.818;2023-08-01T19:51:28;15.90;99.90
5924;DHT22;2987;50.884;14.818;2023-08-01T19:53:54;15.80;99.90
5924;DHT22;2987;50.884;14.818;2023-08-01T19:56:20;15.70;99.90
5924;DHT22;2987;50.884;14.818;2023-08-01T19:58:46;15.70;99.90
5924;DHT22;2987;50.884;14.818;2023-08-01T20:01:12;15.60;99.90
5924;DHT22;2987;50.884;14.818;2023-08-01T20:03:38;15.60;99.90
5924;DHT22;2987;50.884;14.818;2023-08-01T20:06:06;15.60;99.90
5924;DHT22;2987;50.884;14.818;2023-08-01T20:08:33;15.60;99.90
5924;DHT22;2987;50.884;14.818;2023-08-01T20:11:00;15.60;99.90
5924;DHT22;2987;50.884;14.818;2023-08-01T20:13:27;15.60;99.90
5924;DHT22;2987;50.884;14.818;2023-08-01T20:15:55;15.50;99.90
5924;DHT22;2987;50.884;14.818;2023-08-01T20:18:22;15.50;99.90
5924;DHT22;2987;50.884;14.818;2023-08-01T20:20:49;15.40;99.90
5924;DHT22;2987;50.884;14.818;2023-08-01T20:23:15;15.30;99.90
5924;DHT22;2987;50.884;14.818;2023-08-01T20:25:41;15.30;99.90
5924;DHT22;2987;50.884;14.818;2023-08-01T20:28:09;15.30;99.90
5924;DHT22;2987;50.884;14.818;2023-08-01T20:30:36;15.20;99.90
5924;DHT22;2987;50.884;14.818;2023-08-01T20:33:02;15.20;99.90
5924;DHT22;2987;50.884;14.818;2023-08-01T20:35:29;15.20;99.90
5924;DHT22;2987;50.884;14.818;2023-08-01T20:37:55;15.10;99.90
5924;DHT22;2987;50.884;14.818;2023-08-01T20:40:21;15.00;99.90
5924;DHT22;2987;50.884;14.818;2023-08-01T20:42:50;15.00;99.90
5924;DHT22;2987;50.884;14.818;2023-08-01T20:45:17;15.00;99.90
5924;DHT22;2987;50.884;14.818;2023-08-01T20:47:44;14.90;99.90
5924;DHT22;2987;50.884;14.818;2023-08-01T20:50:10;14.90;99.90
5924;DHT22;2987;50.884;14.818;2023-08-01T20:52:36;14.90;99.90
5924;DHT22;2987;50.884;14.818;2023-08-01T20:55:04;14.80;99.90
5924;DHT22;2987;50.884;14.818;2023-08-01T20:57:30;14.80;99.90
5924;DHT22;2987;50.884;14.818;2023-08-01T20:59:55;14.80;99.90
5924;DHT22;2987;50.884;14.818;2023-08-01T21:02:21;14.70;99.90
5924;DHT22;2987;50.884;14.818;2023-08-01T21:04:48;14.70;99.90
5924;DHT22;2987;50.884;14.818;2023-08-01T21:07:14;14.60;99.90
5924;DHT22;2987;50.884;14.818;2023-08-01T21:09:40;14.60;99.90
5924;DHT22;2987;50.884;14.818;2023-08-01T21:12:06;14.60;99.90
5924;DHT22;2987;50.884;14.818;2023-08-01T21:14:32;14.50;99.90
5924;DHT22;2987;50.884;14.818;2023-08-01T21:16:58;14.50;99.90
5924;DHT22;2987;50.884;14.818;2023-08-01T21:19:24;14.50;99.90
5924;DHT22;2987;50.884;14.818;2023-08-01T21:21:50;14.40;99.90
5924;DHT22;2987;50.884;14.818;2023-08-01T21:24:16;14.40;99.90
5924;DHT22;2987;50.884;14.818;2023-08-01T21:26:42;14.40;99.90
5924;DHT22;2987;50.884;14.818;2023-08-01T21:29:08;14.40;99.90
5924;DHT22;2987;50.884;14.818;2023-08-01T21:31:34;14.30;99.90
5924;DHT22;2987;50.884;14.818;2023-08-01T21:34:01;14.30;99.90
5924;DHT22;2987;50.884;14.818;2023-08-01T21:36:27;14.30;99.90
5924;DHT22;2987;50.884;14.818;2023-08-01T21:38:53;14.30;99.90
5924;DHT22;2987;50.884;14.818;2023-08-01T22:04:56;14.30;99.90
5924;DHT22;2987;50.884;14.818;2023-08-01T22:09:48;14.30;99.90
5924;DHT22;2987;50.884;14.818;2023-08-01T22:12:14;14.30;99.90
5924;DHT22;2987;50.884;14.818;2023-08-01T22:14:40;14.30;99.90
5924;DHT22;2987;50.884;14.818;2023-08-01T22:17:06;14.30;99.90
5924;DHT22;2987;50.884;14.818;2023-08-01T22:19:32;14.30;99.90
5924;DHT22;2987;50.884;14.818;2023-08-01T22:21:58;14.30;99.90
5924;DHT22;2987;50.884;14.818;2023-08-01T22:24:24;14.30;99.90
5924;DHT22;2987;50.884;14.818;2023-08-01T22:26:50;14.20;99.90
5924;DHT22;2987;50.884;14.818;2023-08-01T22:29:17;14.30;99.90
5924;DHT22;2987;50.884;14.818;2023-08-01T22:31:42;14.30;99.90